createdAt,value
2023-04-15T00:02:31.474Z,3.20
2023-04-15T00:05:05.690Z,3.30
2023-04-15T00:07:40.717Z,3.50
2023-04-15T00:10:15.757Z,3.30
2023-04-15T00:12:53.364Z,3.50
2023-04-15T00:15:29.611Z,3.50
2023-04-15T00:18:03.522Z,3.20
2023-04-15T00:20:42.037Z,3.30
2023-04-15T00:23:17.535Z,3.50
2023-04-15T00:25:54.722Z,3.40
2023-04-15T00:28:31.344Z,3.50
2023-04-15T00:31:06.706Z,3.50
2023-04-15T00:33:44.282Z,3.20
2023-04-15T00:36:22.491Z,3.30
2023-04-15T00:38:56.452Z,3.40
2023-04-15T00:41:30.664Z,3.50
2023-04-15T00:44:05.548Z,3.30
2023-04-15T00:46:41.828Z,3.40
2023-04-15T00:49:16.902Z,3.50
2023-04-15T00:51:50.815Z,3.00
2023-04-15T00:54:25.792Z,3.70
2023-04-15T00:57:01.194Z,3.50
2023-04-15T00:59:36.739Z,3.40
2023-04-15T01:02:13.107Z,3.30
2023-04-15T01:04:49.576Z,3.20
2023-04-15T01:07:26.454Z,3.50
2023-04-15T01:10:03.367Z,3.20
2023-04-15T01:12:40.379Z,3.40
2023-04-15T01:15:15.089Z,3.60
2023-04-15T01:17:51.979Z,3.40
2023-04-15T01:20:27.645Z,3.50
2023-04-15T01:23:02.868Z,3.70
2023-04-15T01:25:38.507Z,3.30
2023-04-15T01:28:12.462Z,3.60
2023-04-15T01:30:48.534Z,3.50
2023-04-15T01:33:23.445Z,3.70
2023-04-15T01:36:01.258Z,3.50
2023-04-15T01:38:36.057Z,3.40
2023-04-15T01:41:11.540Z,3.50
2023-04-15T01:43:46.435Z,3.40
2023-04-15T01:46:22.151Z,3.40
2023-04-15T01:48:57.333Z,3.50
2023-04-15T01:51:31.442Z,3.30
2023-04-15T01:54:06.619Z,3.40
2023-04-15T01:56:40.272Z,3.50
2023-04-15T01:59:14.335Z,3.40
2023-04-15T02:01:50.420Z,3.50
2023-04-15T02:04:25.484Z,3.70
2023-04-15T02:06:59.395Z,3.40
2023-04-15T02:09:34.906Z,3.50
2023-04-15T02:12:10.461Z,3.50
2023-04-15T02:14:45.472Z,3.70
2023-04-15T02:17:21.669Z,3.60
2023-04-15T02:19:59.690Z,3.40
2023-04-15T02:22:36.196Z,3.30
2023-04-15T02:25:12.209Z,3.80
2023-04-15T02:27:45.795Z,3.60
2023-04-15T02:30:19.729Z,3.60
2023-04-15T02:32:56.074Z,3.50
2023-04-15T02:35:30.083Z,3.80
2023-04-15T02:38:03.420Z,3.30
2023-04-15T02:40:37.800Z,3.50
2023-04-15T02:43:12.546Z,3.40
2023-04-15T02:45:48.464Z,3.80
2023-04-15T02:48:25.366Z,3.80
2023-04-15T02:51:13.836Z,3.70
2023-04-15T02:53:47.258Z,3.70
2023-04-15T02:56:20.812Z,3.60
2023-04-15T02:58:57.431Z,3.90
2023-04-15T03:01:34.919Z,3.70
2023-04-15T03:04:09.579Z,3.50
2023-04-15T03:06:43.290Z,3.70
2023-04-15T03:09:18.059Z,3.60
2023-04-15T03:11:54.840Z,3.40
2023-04-15T03:14:31.001Z,3.70
2023-04-15T03:17:06.246Z,3.70
2023-04-15T03:19:39.959Z,3.70
2023-04-15T03:22:15.133Z,3.90
2023-04-15T03:24:51.959Z,3.60
2023-04-15T03:27:27.254Z,3.50
2023-04-15T03:30:01.860Z,3.70
2023-04-15T03:32:38.872Z,3.80
2023-04-15T03:35:14.216Z,3.90
2023-04-15T03:37:49.396Z,3.70
2023-04-15T03:40:24.691Z,3.90
2023-04-15T03:42:59.490Z,3.80
2023-04-15T03:45:34.643Z,4.00
2023-04-15T03:48:17.197Z,3.80
2023-04-15T03:50:51.884Z,3.80
2023-04-15T03:53:26.024Z,4.00
2023-04-15T03:56:01.089Z,3.90
2023-04-15T03:58:37.048Z,3.90
2023-04-15T04:01:11.000Z,4.10
2023-04-15T04:03:47.054Z,4.10
2023-04-15T04:06:22.868Z,4.10
2023-04-15T04:08:56.694Z,3.90
2023-04-15T04:11:31.912Z,4.10
2023-04-15T04:14:06.916Z,4.00
2023-04-15T04:16:43.900Z,4.10
2023-04-15T04:19:20.324Z,3.80
2023-04-15T04:21:54.660Z,4.30
2023-04-15T04:24:31.907Z,4.00
2023-04-15T04:27:06.639Z,4.10
2023-04-15T04:29:40.078Z,3.90
2023-04-15T04:32:15.098Z,3.60
2023-04-15T04:34:50.155Z,4.00
2023-04-15T04:37:27.193Z,3.80
2023-04-15T04:40:04.842Z,3.70
2023-04-15T04:42:40.940Z,3.70
2023-04-15T04:45:15.523Z,3.90
2023-04-15T04:47:51.982Z,4.10
2023-04-15T04:50:27.236Z,3.90
2023-04-15T04:53:01.964Z,3.80
2023-04-15T04:55:37.760Z,3.70
2023-04-15T04:58:13.275Z,3.90
2023-04-15T05:00:48.376Z,3.60
2023-04-15T05:03:23.744Z,3.80
2023-04-15T05:06:01.329Z,3.90
2023-04-15T05:08:39.128Z,3.70
2023-04-15T05:11:15.705Z,4.00
2023-04-15T05:13:52.677Z,3.50
2023-04-15T05:16:28.536Z,4.00
2023-04-15T05:19:04.398Z,3.70
2023-04-15T05:21:39.731Z,3.70
2023-04-15T05:24:14.576Z,3.70
2023-04-15T05:26:49.302Z,3.80
2023-04-15T05:29:24.537Z,3.70
2023-04-15T05:31:59.760Z,3.80
2023-04-15T05:34:35.633Z,3.90
2023-04-15T05:37:11.439Z,3.80
2023-04-15T05:39:49.015Z,3.70
2023-04-15T05:42:24.729Z,3.80
2023-04-15T05:45:00.937Z,3.70
2023-04-15T05:47:37.764Z,3.80
2023-04-15T05:50:13.776Z,3.80
2023-04-15T05:52:50.518Z,4.10
2023-04-15T05:55:24.975Z,3.60
2023-04-15T05:58:01.395Z,3.80
2023-04-15T06:00:39.650Z,3.70
2023-04-15T06:03:15.678Z,3.70
2023-04-15T06:05:50.550Z,3.70
2023-04-15T06:08:28.954Z,3.60
2023-04-15T06:11:04.511Z,3.60
2023-04-15T06:13:41.768Z,3.50
2023-04-15T06:16:15.991Z,4.10
2023-04-15T06:18:51.454Z,3.50
2023-04-15T06:21:27.190Z,3.50
2023-04-15T06:24:03.369Z,3.50
2023-04-15T06:26:40.204Z,3.50
2023-04-15T06:29:16.136Z,3.40
2023-04-15T06:31:53.254Z,3.70
2023-04-15T06:34:28.683Z,3.60
2023-04-15T06:37:05.124Z,3.30
2023-04-15T06:39:40.320Z,3.30
2023-04-15T06:42:19.055Z,3.20
2023-04-15T06:44:53.433Z,3.50
2023-04-15T06:47:30.499Z,2.90
2023-04-15T06:50:07.714Z,3.20
2023-04-15T06:52:43.303Z,3.30
2023-04-15T06:55:20.432Z,3.10
2023-04-15T06:57:57.103Z,3.10
2023-04-15T07:00:33.826Z,3.30
2023-04-15T07:03:11.486Z,3.00
2023-04-15T07:05:46.542Z,3.30
2023-04-15T07:08:21.898Z,3.20
2023-04-15T07:10:59.058Z,3.10
2023-04-15T07:13:37.766Z,3.40
2023-04-15T07:16:15.423Z,3.30
2023-04-15T07:18:50.334Z,2.90
2023-04-15T07:21:24.092Z,3.10
2023-04-15T07:24:00.839Z,3.20
2023-04-15T07:26:36.006Z,3.00
2023-04-15T07:29:12.675Z,3.30
2023-04-15T07:31:48.169Z,3.20
2023-04-15T07:34:23.137Z,2.90
2023-04-15T07:37:00.447Z,3.30
2023-04-15T07:39:33.847Z,2.90
2023-04-15T07:42:07.810Z,3.20
2023-04-15T07:44:42.481Z,2.90
2023-04-15T07:47:20.016Z,3.20
2023-04-15T07:49:58.134Z,2.70
2023-04-15T07:52:39.214Z,3.00
2023-04-15T07:55:13.849Z,3.00
2023-04-15T07:57:51.235Z,2.60
2023-04-15T08:00:28.508Z,3.00
2023-04-15T08:03:05.145Z,2.80
2023-04-15T08:05:40.007Z,2.70
2023-04-15T08:08:17.097Z,3.00
2023-04-15T08:10:53.628Z,2.80
2023-04-15T08:13:29.622Z,2.70
2023-04-15T08:16:24.629Z,2.90
2023-04-15T08:19:01.605Z,2.60
2023-04-15T08:21:35.866Z,2.70
2023-04-15T08:24:11.573Z,2.60
2023-04-15T08:26:48.184Z,2.50
2023-04-15T08:29:22.152Z,2.50
2023-04-15T08:31:59.593Z,2.40
2023-04-15T08:34:36.412Z,2.80
2023-04-15T08:37:17.025Z,2.60
2023-04-15T08:39:53.551Z,2.50
2023-04-15T08:42:36.256Z,2.70
2023-04-15T08:45:13.313Z,2.30
2023-04-15T08:47:50.405Z,2.50
2023-04-15T08:50:25.321Z,2.70
2023-04-15T08:53:01.582Z,2.20
2023-04-15T08:55:48.477Z,2.30
2023-04-15T08:58:24.285Z,2.30
2023-04-15T09:01:01.375Z,2.40
2023-04-15T09:03:37.647Z,2.20
2023-04-15T09:06:12.803Z,2.10
2023-04-15T09:08:52.109Z,2.40
2023-04-15T09:11:26.217Z,2.60
2023-04-15T09:14:00.843Z,2.40
2023-04-15T09:16:34.562Z,2.50
2023-04-15T09:19:28.156Z,2.40
2023-04-15T09:22:04.831Z,2.40
2023-04-15T09:24:45.036Z,2.40
2023-04-15T09:27:23.444Z,2.40
2023-04-15T09:29:59.552Z,2.20
2023-04-15T09:32:36.595Z,2.40
2023-04-15T09:35:18.295Z,2.20
2023-04-15T09:37:55.821Z,2.10
2023-04-15T09:40:41.974Z,2.10
2023-04-15T09:43:21.192Z,2.00
2023-04-15T09:45:56.870Z,2.00
2023-04-15T09:48:32.793Z,2.30
2023-04-15T09:51:11.312Z,2.00
2023-04-15T09:53:48.453Z,2.00
2023-04-15T09:56:25.789Z,2.00
2023-04-15T09:59:03.542Z,1.70
2023-04-15T10:01:39.720Z,2.00
2023-04-15T10:04:17.243Z,2.20
2023-04-15T10:06:53.610Z,1.90
2023-04-15T10:09:31.258Z,1.90
2023-04-15T10:12:09.788Z,1.90
2023-04-15T10:14:45.590Z,2.00
2023-04-15T10:17:25.157Z,1.90
2023-04-15T10:20:00.799Z,1.90
2023-04-15T10:22:35.103Z,1.90
2023-04-15T10:25:10.950Z,1.90
2023-04-15T10:27:48.843Z,1.90
2023-04-15T10:30:24.212Z,1.80
2023-04-15T10:32:59.009Z,2.10
2023-04-15T10:35:34.250Z,1.90
2023-04-15T10:38:40.452Z,1.70
2023-04-15T10:41:22.903Z,1.70
2023-04-15T10:44:02.078Z,1.90
2023-04-15T10:46:42.576Z,1.60
2023-04-15T10:49:26.889Z,1.80
2023-04-15T10:52:03.647Z,1.80
2023-04-15T10:54:39.773Z,1.70
2023-04-15T10:57:23.676Z,1.60
2023-04-15T11:00:15.634Z,1.70
2023-04-15T11:02:54.944Z,1.60
2023-04-15T11:05:59.992Z,1.50
2023-04-15T11:09:09.922Z,1.80
2023-04-15T11:12:10.508Z,1.70
2023-04-15T11:14:45.751Z,1.70
2023-04-15T11:17:30.061Z,1.60
2023-04-15T11:20:07.779Z,1.50
2023-04-15T11:22:50.228Z,1.60
2023-04-15T11:25:31.288Z,1.60
2023-04-15T11:28:07.677Z,1.70
2023-04-15T11:30:42.439Z,1.70
2023-04-15T11:33:18.758Z,1.60
2023-04-15T11:35:55.968Z,1.90
2023-04-15T11:38:31.956Z,2.00
2023-04-15T11:41:06.348Z,1.60
2023-04-15T11:43:41.578Z,1.80
2023-04-15T11:46:15.553Z,1.90
2023-04-15T11:48:51.637Z,1.80
2023-04-15T11:51:27.447Z,1.80
2023-04-15T11:54:01.106Z,1.70
2023-04-15T11:56:37.556Z,1.80
2023-04-15T11:59:13.526Z,1.80
2023-04-15T12:01:50.368Z,1.70
2023-04-15T12:04:27.022Z,1.90
2023-04-15T12:07:10.864Z,1.80
2023-04-15T12:09:46.664Z,1.80
2023-04-15T12:12:23.338Z,2.00
2023-04-15T12:14:59.595Z,2.00
2023-04-15T12:17:50.973Z,2.00
2023-04-15T12:20:29.375Z,1.70
2023-04-15T12:23:12.084Z,2.00
2023-04-15T12:25:54.046Z,1.90
2023-04-15T12:28:27.418Z,1.90
2023-04-15T12:31:05.872Z,2.00
2023-04-15T12:33:40.932Z,1.90
2023-04-15T12:36:15.958Z,1.70
2023-04-15T12:38:51.472Z,2.00
2023-04-15T12:41:26.373Z,1.80
2023-04-15T12:44:03.247Z,1.80
2023-04-15T12:46:39.184Z,2.00
2023-04-15T12:49:16.829Z,2.00
2023-04-15T12:51:53.976Z,2.00
2023-04-15T12:54:29.827Z,1.80
2023-04-15T12:57:07.400Z,2.00
2023-04-15T12:59:41.074Z,1.90
2023-04-15T13:02:14.756Z,1.80
2023-04-15T13:04:54.041Z,1.80
2023-04-15T13:07:31.867Z,1.90
2023-04-15T13:10:07.895Z,1.90
2023-04-15T13:12:43.783Z,1.80
2023-04-15T13:15:21.008Z,1.90
2023-04-15T13:17:55.959Z,1.80
2023-04-15T13:20:31.296Z,2.10
2023-04-15T13:23:06.132Z,1.90
2023-04-15T13:25:41.673Z,1.90
2023-04-15T13:28:16.374Z,1.90
2023-04-15T13:30:55.329Z,1.70
2023-04-15T13:33:30.521Z,1.90
2023-04-15T13:36:04.589Z,2.00
2023-04-15T13:38:41.715Z,2.20
2023-04-15T13:41:15.099Z,2.10
2023-04-15T13:43:50.666Z,2.10
2023-04-15T13:46:26.919Z,2.30
2023-04-15T13:49:01.717Z,2.40
2023-04-15T13:51:37.528Z,2.30
2023-04-15T13:54:11.577Z,2.50
2023-04-15T13:56:47.438Z,2.30
2023-04-15T13:59:22.344Z,2.50
2023-04-15T14:01:55.983Z,2.40
2023-04-15T14:04:31.887Z,2.00
2023-04-15T14:07:06.045Z,2.10
2023-04-15T14:09:43.345Z,2.40
2023-04-15T14:12:18.618Z,2.10
2023-04-15T14:14:54.726Z,2.40
2023-04-15T14:17:29.889Z,2.20
2023-04-15T14:20:06.605Z,2.10
2023-04-15T14:22:40.191Z,2.10
2023-04-15T14:25:23.091Z,2.40
2023-04-15T14:28:06.166Z,2.20
2023-04-15T14:30:40.920Z,2.20
2023-04-15T14:33:19.115Z,2.10
2023-04-15T14:35:54.770Z,1.90
2023-04-15T14:38:29.101Z,2.30
2023-04-15T14:41:04.628Z,2.20
2023-04-15T14:43:38.660Z,2.30
2023-04-15T14:46:14.854Z,1.90
2023-04-15T14:48:48.564Z,2.10
2023-04-15T14:51:22.208Z,2.40
2023-04-15T14:53:55.359Z,2.20
2023-04-15T14:56:29.022Z,2.10
2023-04-15T14:59:03.712Z,2.40
2023-04-15T15:01:40.859Z,2.10
2023-04-15T15:04:19.117Z,2.40
2023-04-15T15:06:54.038Z,2.10
2023-04-15T15:09:27.835Z,1.90
2023-04-15T15:12:03.375Z,2.10
2023-04-15T15:14:40.564Z,2.00
2023-04-15T15:17:17.940Z,2.10
2023-04-15T15:19:51.605Z,2.00
2023-04-15T15:22:28.847Z,2.00
2023-04-15T15:25:03.674Z,2.00
2023-04-15T15:27:39.923Z,2.00
2023-04-15T15:30:15.741Z,2.20
2023-04-15T15:32:53.290Z,2.00
2023-04-15T15:35:30.622Z,1.80
2023-04-15T15:38:05.524Z,1.90
2023-04-15T15:40:42.282Z,2.00
2023-04-15T15:43:16.230Z,1.90
2023-04-15T15:45:55.752Z,1.70
2023-04-15T15:48:31.621Z,2.00
2023-04-15T15:51:08.577Z,1.90
2023-04-15T15:53:48.258Z,2.10
2023-04-15T15:56:24.270Z,1.60
2023-04-15T15:58:59.749Z,2.10
2023-04-15T16:01:33.467Z,1.80
2023-04-15T16:04:08.702Z,1.80
2023-04-15T16:06:44.623Z,2.00
2023-04-15T16:09:19.652Z,1.80
2023-04-15T16:11:56.207Z,1.60
2023-04-15T16:14:32.185Z,1.80
2023-04-15T16:17:08.693Z,1.80
2023-04-15T16:19:57.701Z,1.80
2023-04-15T16:22:35.295Z,1.90
2023-04-15T16:25:11.316Z,1.90
2023-04-15T16:27:58.694Z,1.70
2023-04-15T16:30:38.101Z,1.60
2023-04-15T16:33:12.540Z,1.90
2023-04-15T16:35:46.148Z,1.70
2023-04-15T16:38:20.185Z,1.90
2023-04-15T16:40:57.593Z,1.60
2023-04-15T16:43:32.160Z,1.50
2023-04-15T16:46:05.765Z,1.40
2023-04-15T16:48:41.268Z,1.50
2023-04-15T16:51:17.711Z,1.40
2023-04-15T16:53:53.706Z,1.50
2023-04-15T16:56:29.449Z,1.50
2023-04-15T16:59:04.584Z,1.50
2023-04-15T17:01:40.007Z,1.70
2023-04-15T17:04:17.764Z,1.50
2023-04-15T17:06:52.161Z,1.60
2023-04-15T17:09:28.651Z,1.50
2023-04-15T17:12:06.934Z,1.50
2023-04-15T17:14:41.095Z,1.60
2023-04-15T17:17:16.910Z,1.40
2023-04-15T17:19:51.115Z,1.60
2023-04-15T17:22:28.678Z,1.40
2023-04-15T17:25:04.977Z,1.40
2023-04-15T17:27:42.003Z,1.60
2023-04-15T17:30:16.851Z,1.50
2023-04-15T17:32:50.976Z,1.50
2023-04-15T17:35:26.350Z,1.40
2023-04-15T17:38:00.102Z,1.60
2023-04-15T17:40:37.344Z,1.50
2023-04-15T17:43:13.023Z,1.70
2023-04-15T17:45:47.588Z,1.40
2023-04-15T17:48:21.996Z,1.30
2023-04-15T17:50:56.159Z,1.40
2023-04-15T17:53:31.504Z,1.60
2023-04-15T17:56:09.092Z,1.60
2023-04-15T17:58:44.131Z,1.70
2023-04-15T18:01:22.462Z,2.00
2023-04-15T18:03:56.880Z,1.90
2023-04-15T18:06:31.953Z,1.80
2023-04-15T18:09:08.925Z,1.80
2023-04-15T18:11:48.447Z,2.00
2023-04-15T18:14:33.744Z,1.80
2023-04-15T18:17:10.097Z,2.00
2023-04-15T18:19:46.108Z,2.20
2023-04-15T18:22:21.872Z,1.80
2023-04-15T18:25:04.692Z,1.70
2023-04-15T18:27:41.971Z,2.00
2023-04-15T18:30:18.030Z,2.00
2023-04-15T18:32:52.855Z,2.00
2023-04-15T18:35:30.055Z,1.90
2023-04-15T18:38:08.518Z,1.80
2023-04-15T18:40:44.679Z,1.60
2023-04-15T18:43:20.985Z,2.10
2023-04-15T18:45:59.646Z,1.80
2023-04-15T18:48:36.701Z,1.90
2023-04-15T18:51:15.969Z,1.60
2023-04-15T18:53:52.490Z,1.60
2023-04-15T18:56:33.437Z,1.80
2023-04-15T18:59:28.739Z,1.70
2023-04-15T19:02:09.235Z,1.70
2023-04-15T19:04:45.016Z,1.50
2023-04-15T19:07:24.256Z,2.20
2023-04-15T19:10:00.676Z,1.70
2023-04-15T19:12:36.830Z,1.60
2023-04-15T19:15:13.248Z,1.60
2023-04-15T19:17:54.048Z,1.50
2023-04-15T19:20:33.256Z,1.60
2023-04-15T19:23:12.530Z,1.60
2023-04-15T19:25:46.181Z,1.70
2023-04-15T19:28:20.884Z,1.70
2023-04-15T19:30:55.989Z,1.60
2023-04-15T19:33:31.802Z,1.60
2023-04-15T19:36:09.803Z,1.60
2023-04-15T19:38:45.197Z,1.50
2023-04-15T19:41:21.257Z,1.40
2023-04-15T19:43:55.735Z,1.70
2023-04-15T19:46:31.532Z,1.50
2023-04-15T19:49:08.839Z,1.40
2023-04-15T19:51:42.731Z,1.50
2023-04-15T19:54:18.302Z,1.60
2023-04-15T19:56:55.517Z,1.60
2023-04-15T19:59:32.245Z,1.50
2023-04-15T20:02:09.289Z,1.40
2023-04-15T20:04:44.147Z,1.40
2023-04-15T20:07:19.820Z,1.40
2023-04-15T20:09:53.819Z,1.50
2023-04-15T20:12:49.414Z,1.40
2023-04-15T20:15:26.296Z,1.60
2023-04-15T20:18:01.847Z,1.50
2023-04-15T20:20:37.701Z,1.40
2023-04-15T20:23:13.865Z,1.40
2023-04-15T20:25:48.079Z,1.50
2023-04-15T20:28:23.526Z,1.50
2023-04-15T20:30:57.977Z,1.50
2023-04-15T20:33:34.054Z,1.30
2023-04-15T20:36:09.703Z,1.30
2023-04-15T20:38:43.362Z,1.40
2023-04-15T20:41:17.746Z,1.30
2023-04-15T20:43:52.976Z,1.30
2023-04-15T20:46:27.685Z,1.50
2023-04-15T20:49:05.246Z,1.40
2023-04-15T20:51:40.535Z,1.30
2023-04-15T20:54:17.006Z,1.30
2023-04-15T20:56:56.543Z,1.30
2023-04-15T20:59:34.990Z,1.30
2023-04-15T21:02:09.776Z,1.30
2023-04-15T21:04:43.869Z,1.20
2023-04-15T21:07:19.044Z,1.40
2023-04-15T21:09:56.314Z,1.40
2023-04-15T21:12:30.604Z,1.30
2023-04-15T21:15:06.159Z,1.20
2023-04-15T21:17:44.839Z,1.30
2023-04-15T21:20:23.028Z,1.20
2023-04-15T21:22:56.935Z,1.40
2023-04-15T21:25:30.948Z,1.10
2023-04-15T21:28:06.901Z,1.20
2023-04-15T21:30:40.772Z,1.50
2023-04-15T21:33:16.005Z,1.30
2023-04-15T21:35:49.872Z,1.30
2023-04-15T21:38:23.892Z,1.40
2023-04-15T21:40:58.195Z,1.40
2023-04-15T21:43:31.900Z,1.40
2023-04-15T21:46:22.036Z,1.40
2023-04-15T21:49:00.667Z,1.50
2023-04-15T21:51:36.350Z,1.50
2023-04-15T21:54:10.627Z,1.40
2023-04-15T21:56:46.473Z,1.40
2023-04-15T21:59:20.741Z,1.30
2023-04-15T22:01:54.924Z,1.40
2023-04-15T22:04:29.236Z,1.60
2023-04-15T22:07:02.890Z,1.50
2023-04-15T22:09:36.642Z,1.50
2023-04-15T22:12:12.801Z,1.40
2023-04-15T22:14:49.830Z,1.60
2023-04-15T22:17:23.789Z,1.70
2023-04-15T22:19:58.986Z,1.40
2023-04-15T22:22:44.180Z,1.70
2023-04-15T22:25:18.933Z,1.60
2023-04-15T22:27:56.216Z,1.80
2023-04-15T22:30:30.890Z,1.70
2023-04-15T22:33:04.629Z,2.20
2023-04-15T22:35:39.174Z,2.10
2023-04-15T22:38:12.985Z,2.10
2023-04-15T22:40:52.008Z,2.00
2023-04-15T22:43:28.644Z,2.10
2023-04-15T22:46:02.774Z,2.50
2023-04-15T22:48:36.915Z,1.90
2023-04-15T22:51:12.977Z,1.90
2023-04-15T22:53:46.888Z,1.90
2023-04-15T22:56:24.267Z,2.10
2023-04-15T22:59:00.689Z,2.00
2023-04-15T23:01:35.086Z,2.00
2023-04-15T23:04:10.870Z,2.00
2023-04-15T23:07:00.631Z,1.60
2023-04-15T23:09:37.005Z,1.80
2023-04-15T23:12:11.066Z,2.30
2023-04-15T23:14:46.387Z,1.90
2023-04-15T23:17:21.460Z,1.70
2023-04-15T23:19:56.424Z,1.80
2023-04-15T23:22:30.441Z,1.60
2023-04-15T23:25:07.729Z,1.90
2023-04-15T23:27:43.990Z,1.70
2023-04-15T23:30:19.587Z,1.90
2023-04-15T23:32:53.598Z,1.80
2023-04-15T23:35:30.584Z,1.80
2023-04-15T23:38:04.406Z,1.70
2023-04-15T23:40:39.322Z,1.70
2023-04-15T23:43:13.240Z,1.60
2023-04-15T23:45:48.117Z,2.00
2023-04-15T23:48:23.710Z,1.80
2023-04-15T23:50:57.524Z,1.80
2023-04-15T23:53:31.741Z,2.20
2023-04-15T23:56:06.270Z,1.90
2023-04-15T23:58:40.380Z,2.00
